createdAt,value
2022-08-28T00:02:17.729Z,3.80
2022-08-28T00:07:21.230Z,3.80
2022-08-28T00:12:24.799Z,3.10
2022-08-28T00:17:29.812Z,3.43
2022-08-28T00:22:33.291Z,3.53
2022-08-28T00:27:55.316Z,3.50
2022-08-28T00:33:05.511Z,3.10
2022-08-28T00:38:09.123Z,3.10
2022-08-28T00:43:26.739Z,3.17
2022-08-28T00:48:31.856Z,2.73
2022-08-28T00:53:35.427Z,3.33
2022-08-28T00:58:39.953Z,3.20
2022-08-28T01:03:45.881Z,4.17
2022-08-28T01:08:50.862Z,3.03
2022-08-28T01:13:56.922Z,3.13
2022-08-28T01:19:10.915Z,2.97
2022-08-28T01:24:18.548Z,2.47
2022-08-28T01:29:22.387Z,2.97
2022-08-28T01:34:25.965Z,2.73
2022-08-28T01:39:30.828Z,2.70
2022-08-28T01:44:34.313Z,3.23
2022-08-28T01:49:37.854Z,2.70
2022-08-28T01:54:42.746Z,3.50
2022-08-28T01:59:47.571Z,2.43
2022-08-28T02:04:51.076Z,2.63
2022-08-28T02:09:55.978Z,4.03
2022-08-28T02:14:59.395Z,3.50
2022-08-28T02:20:03.001Z,3.63
2022-08-28T02:25:10.158Z,3.03
2022-08-28T02:30:15.193Z,2.00
2022-08-28T02:35:20.479Z,1.90
2022-08-28T02:40:26.483Z,2.07
2022-08-28T02:45:30.020Z,2.00
2022-08-28T02:50:33.619Z,2.27
2022-08-28T02:55:38.952Z,3.07
2022-08-28T03:00:42.681Z,1.77
2022-08-28T03:05:46.239Z,1.80
2022-08-28T03:10:51.350Z,1.93
2022-08-28T03:15:55.823Z,1.50
2022-08-28T03:21:00.636Z,1.73
2022-08-28T03:26:07.987Z,1.50
2022-08-28T03:31:14.946Z,1.93
2022-08-28T03:36:22.129Z,2.30
2022-08-28T03:41:30.171Z,2.07
2022-08-28T03:46:34.834Z,1.80
2022-08-28T03:51:38.429Z,1.67
2022-08-28T03:56:43.508Z,2.03
2022-08-28T04:01:47.461Z,2.03
2022-08-28T04:06:51.105Z,1.73
2022-08-28T04:11:56.091Z,2.10
2022-08-28T04:17:01.501Z,2.40
2022-08-28T04:22:05.363Z,1.70
2022-08-28T04:27:10.214Z,2.20
2022-08-28T04:32:13.731Z,2.23
2022-08-28T04:37:17.911Z,1.60
2022-08-28T04:42:22.733Z,2.03
2022-08-28T04:47:26.497Z,1.80
2022-08-28T04:52:30.085Z,1.97
2022-08-28T04:57:36.570Z,2.27
2022-08-28T05:02:40.284Z,1.57
2022-08-28T05:07:44.991Z,1.60
2022-08-28T05:12:50.248Z,2.50
2022-08-28T05:17:53.875Z,1.73
2022-08-28T05:22:57.528Z,2.03
2022-08-28T05:28:02.428Z,2.07
2022-08-28T05:33:06.011Z,2.20
2022-08-28T05:38:10.481Z,1.83
2022-08-28T05:43:18.101Z,2.60
2022-08-28T05:48:21.599Z,2.33
2022-08-28T05:53:25.626Z,2.07
2022-08-28T05:58:31.301Z,1.93
2022-08-28T06:03:36.264Z,2.60
2022-08-28T06:08:58.097Z,2.43
2022-08-28T06:14:06.545Z,2.07
2022-08-28T06:19:11.233Z,2.00
2022-08-28T06:24:15.208Z,2.53
2022-08-28T06:29:22.090Z,2.13
2022-08-28T06:34:28.212Z,1.90
2022-08-28T06:39:31.719Z,2.30
2022-08-28T06:44:38.548Z,1.90
2022-08-28T06:49:42.050Z,1.70
2022-08-28T06:54:55.671Z,1.87
2022-08-28T07:00:01.026Z,3.27
2022-08-28T07:05:05.291Z,1.70
2022-08-28T07:10:09.611Z,2.33
2022-08-28T07:15:14.715Z,2.33
2022-08-28T07:20:18.726Z,2.47
2022-08-28T07:25:26.766Z,2.37
2022-08-28T07:30:31.808Z,1.90
2022-08-28T07:35:35.458Z,2.53
2022-08-28T07:40:39.067Z,2.27
2022-08-28T07:45:45.050Z,2.27
2022-08-28T07:50:48.960Z,2.50
2022-08-28T07:55:52.928Z,2.20
2022-08-28T08:00:59.413Z,2.20
2022-08-28T08:06:05.626Z,2.13
2022-08-28T08:11:13.925Z,2.63
2022-08-28T08:16:23.517Z,2.23
2022-08-28T08:21:30.306Z,2.60
2022-08-28T08:26:35.661Z,2.90
2022-08-28T08:31:41.270Z,2.83
2022-08-28T08:36:48.031Z,3.40
2022-08-28T08:41:57.033Z,2.90
2022-08-28T08:47:14.003Z,2.70
2022-08-28T08:52:32.220Z,3.33
2022-08-28T08:57:37.939Z,2.40
2022-08-28T09:02:49.818Z,3.07
2022-08-28T09:07:58.040Z,3.50
2022-08-28T09:13:08.145Z,2.27
2022-08-28T09:18:19.300Z,3.30
2022-08-28T09:23:23.946Z,3.13
2022-08-28T09:28:30.275Z,2.33
2022-08-28T09:33:40.146Z,2.27
2022-08-28T09:38:45.635Z,3.60
2022-08-28T09:43:49.202Z,2.63
2022-08-28T09:49:07.953Z,2.37
2022-08-28T09:54:20.268Z,2.23
2022-08-28T09:59:26.599Z,2.10
2022-08-28T10:04:43.611Z,2.53
2022-08-28T10:09:56.663Z,2.17
2022-08-28T10:15:09.561Z,2.77
2022-08-28T10:20:20.995Z,3.00
2022-08-28T10:25:31.420Z,2.50
2022-08-28T10:30:40.167Z,2.80
2022-08-28T10:35:54.691Z,2.87
2022-08-28T10:41:04.502Z,2.20
2022-08-28T10:46:14.431Z,2.63
2022-08-28T10:51:35.487Z,2.40
2022-08-28T10:56:45.126Z,2.30
2022-08-28T11:01:49.030Z,2.53
2022-08-28T11:07:00.576Z,2.70
2022-08-28T11:12:11.585Z,1.97
2022-08-28T11:17:41.938Z,2.50
2022-08-28T11:22:50.930Z,2.60
2022-08-28T11:28:15.683Z,2.60
2022-08-28T11:33:44.573Z,2.33
2022-08-28T11:39:06.675Z,1.87
2022-08-28T11:44:39.683Z,2.60
2022-08-28T11:49:45.815Z,2.30
2022-08-28T11:54:59.161Z,2.40
2022-08-28T12:00:09.331Z,2.10
2022-08-28T12:05:38.946Z,2.97
2022-08-28T12:11:00.495Z,2.17
2022-08-28T12:16:06.504Z,3.27
2022-08-28T12:21:16.018Z,2.87
2022-08-28T12:26:25.493Z,3.00
2022-08-28T12:32:13.264Z,2.73
2022-08-28T12:37:39.585Z,2.43
2022-08-28T12:43:00.338Z,2.57
2022-08-28T12:48:14.212Z,2.73
2022-08-28T12:53:19.600Z,2.80
2022-08-28T12:58:33.723Z,3.00
2022-08-28T13:03:47.461Z,2.67
2022-08-28T13:08:51.204Z,2.47
2022-08-28T13:13:56.228Z,2.80
2022-08-28T13:19:14.623Z,2.50
2022-08-28T13:24:38.096Z,2.90
2022-08-28T13:29:58.085Z,2.33
2022-08-28T13:35:16.657Z,2.07
2022-08-28T13:40:55.796Z,2.30
2022-08-28T13:45:48.824Z,2.20
2022-08-28T13:50:57.779Z,2.37
2022-08-28T13:56:02.692Z,2.87
2022-08-28T14:01:10.461Z,2.23
2022-08-28T14:06:16.956Z,1.90
2022-08-28T14:11:23.707Z,2.27
2022-08-28T14:16:29.188Z,2.10
2022-08-28T14:21:34.842Z,2.20
2022-08-28T14:26:38.679Z,2.13
2022-08-28T14:31:44.169Z,2.00
2022-08-28T14:36:50.900Z,2.20
2022-08-28T14:41:55.093Z,1.80
2022-08-28T14:47:00.230Z,1.80
2022-08-28T14:52:04.007Z,2.33
2022-08-28T14:57:07.707Z,1.70
2022-08-28T15:02:13.583Z,2.13
2022-08-28T15:07:21.359Z,1.73
2022-08-28T15:12:24.854Z,1.60
2022-08-28T15:17:34.491Z,1.40
2022-08-28T15:22:38.894Z,2.30
2022-08-28T15:27:42.524Z,1.77
2022-08-28T15:32:48.804Z,1.70
2022-08-28T15:37:53.622Z,2.27
2022-08-28T15:42:58.552Z,2.13
2022-08-28T15:48:05.510Z,1.80
2022-08-28T15:53:10.802Z,2.07
2022-08-28T15:58:16.156Z,1.80
2022-08-28T16:03:21.460Z,1.83
2022-08-28T16:08:25.279Z,1.50
2022-08-28T16:13:29.358Z,1.40
2022-08-28T16:18:34.405Z,1.70
2022-08-28T16:23:38.596Z,1.80
2022-08-28T16:28:42.365Z,0.93
2022-08-28T16:33:48.155Z,1.13
2022-08-28T16:39:03.675Z,1.50
2022-08-28T16:44:08.200Z,1.70
2022-08-28T16:49:14.779Z,1.30
2022-08-28T16:54:19.369Z,1.90
2022-08-28T16:59:24.147Z,1.10
2022-08-28T17:04:29.991Z,1.60
2022-08-28T17:09:34.436Z,1.43
2022-08-28T17:14:39.550Z,1.00
2022-08-28T17:19:44.815Z,1.10
2022-08-28T17:24:48.689Z,1.33
2022-08-28T17:29:56.800Z,1.50
2022-08-28T17:35:02.508Z,1.40
2022-08-28T17:40:09.421Z,0.93
2022-08-28T17:45:22.392Z,1.27
2022-08-28T17:50:29.656Z,1.57
2022-08-28T17:55:33.413Z,1.23
2022-08-28T18:00:36.988Z,1.20
2022-08-28T18:05:42.224Z,1.50
2022-08-28T18:10:45.992Z,1.13
2022-08-28T18:15:56.581Z,1.27
2022-08-28T18:21:02.660Z,2.37
2022-08-28T18:26:07.198Z,1.17
2022-08-28T18:31:14.624Z,1.37
2022-08-28T18:36:20.497Z,1.37
2022-08-28T18:41:35.763Z,1.10
2022-08-28T18:46:49.128Z,1.57
2022-08-28T18:51:54.933Z,1.50
2022-08-28T18:57:03.869Z,1.77
2022-08-28T19:02:09.986Z,1.20
2022-08-28T19:07:16.227Z,1.23
2022-08-28T19:12:23.041Z,1.00
2022-08-28T19:17:28.366Z,1.37
2022-08-28T19:22:34.024Z,1.10
2022-08-28T19:27:42.132Z,1.17
2022-08-28T19:32:48.516Z,1.67
2022-08-28T19:37:56.696Z,1.93
2022-08-28T19:43:01.923Z,1.20
2022-08-28T19:48:06.886Z,1.63
2022-08-28T19:53:15.336Z,1.53
2022-08-28T19:58:19.678Z,1.33
2022-08-28T20:03:23.814Z,1.53
2022-08-28T20:08:31.019Z,2.23
2022-08-28T20:13:34.903Z,1.50
2022-08-28T20:18:38.872Z,1.93
2022-08-28T20:23:44.054Z,1.50
2022-08-28T20:28:49.453Z,1.60
2022-08-28T20:33:53.231Z,1.40
2022-08-28T20:38:58.262Z,1.97
2022-08-28T20:44:04.986Z,1.73
2022-08-28T20:49:09.095Z,1.27
2022-08-28T20:54:16.876Z,1.97
2022-08-28T20:59:21.274Z,1.60
2022-08-28T21:04:25.544Z,1.83
2022-08-28T21:09:39.521Z,1.60
2022-08-28T21:14:54.109Z,1.60
2022-08-28T21:19:57.606Z,1.80
2022-08-28T21:25:02.765Z,1.70
2022-08-28T21:30:09.058Z,1.20
2022-08-28T21:35:14.470Z,1.33
2022-08-28T21:40:20.495Z,1.70
2022-08-28T21:45:24.151Z,1.63
2022-08-28T21:50:29.128Z,1.50
2022-08-28T21:55:34.140Z,1.50
2022-08-28T22:00:37.728Z,1.80
2022-08-28T22:05:43.813Z,1.70
2022-08-28T22:10:49.583Z,2.07
2022-08-28T22:15:53.701Z,1.87
2022-08-28T22:21:14.859Z,2.10
2022-08-28T22:26:22.902Z,1.53
2022-08-28T22:31:26.938Z,1.83
2022-08-28T22:36:31.048Z,1.53
2022-08-28T22:41:37.550Z,1.40
2022-08-28T22:46:41.271Z,1.70
2022-08-28T22:51:44.834Z,1.67
2022-08-28T22:56:49.628Z,1.50
2022-08-28T23:01:53.144Z,1.50
2022-08-28T23:06:56.783Z,1.90
2022-08-28T23:12:01.722Z,1.63
2022-08-28T23:17:05.426Z,1.27
2022-08-28T23:22:09.980Z,1.83
2022-08-28T23:27:35.319Z,1.80
2022-08-28T23:32:38.649Z,1.60
2022-08-28T23:37:48.047Z,2.20
2022-08-28T23:42:54.550Z,1.67
2022-08-28T23:47:58.165Z,1.73
2022-08-28T23:53:03.525Z,1.80
2022-08-28T23:58:09.341Z,1.77
